Profiler II — CZ2496 — position and weather

sailwx.info

Track history (hours):
 
Tides and Currents Weather Stations Pressure Air Temp Water Temp Dewpoint Dewpoint Depression Visibility Wind Speed Wind Dir Waves Ship Positions

Profiler II

Last reported at 2017-Nov-17 22:09 UTC. Time now 2017-Nov-19 13:58 UTC.
Position N 49°10' W 122°60'.

Type: Other ship. MMSI: 316002054.

Date/timePositionNaut miles runAvg speedWind from/ knotsBaromVisibWave heightAir tempDewpointWater temp
2017-Nov-17 22:09N 49°10' W 122°60'0 0.0
2017-Nov-17 22:00N 49°10' W 122°60'3 6.0
2017-Nov-17 21:27N 49°12' W 122°55'0 0.0
2017-Nov-17 20:48N 49°12' W 122°55'0 0.0
2017-Nov-17 20:16N 49°12' W 122°55'0 0.0
2017-Nov-17 19:57N 49°12' W 122°55'0 0.0
2017-Nov-17 19:24N 49°12' W 122°55'0 0.0
2017-Nov-17 18:58N 49°12' W 122°55'  
2017-Nov-08 23:10N 49°12' W 122°55'0 0.0
2017-Nov-08 23:00N 49°12' W 122°55'2 5.0
2017-Nov-08 22:30N 49°09' W 122°57'4 8.3
2017-Nov-08 22:00N 49°08' W 123°03'6 9.5
2017-Nov-08 21:25N 49°07' W 123°12'1 1.2
2017-Nov-08 20:52N 49°08' W 123°13'514.0
2017-Nov-08 20:30N 49°06' W 123°20'4713.0
2017-Nov-08 16:54N 49°38' W 124°13'615.2
2017-Nov-08 16:30N 49°42' W 124°20'815.2
2017-Nov-08 16:00N 49°47' W 124°29'2 0.1
2017-Nov-07 23:06N 49°48' W 124°31'0 0.0
2017-Nov-07 22:52N 49°48' W 124°31'  
Track history (hours):
 
Tides and Currents Weather Stations Pressure Air Temp Water Temp Dewpoint Dewpoint Depression Visibility Wind Speed Wind Dir Waves Ship Positions

Profiler II

Last reported at 2017-Nov-17 22:09 UTC. Time now 2017-Nov-19 13:58 UTC.
Position N 49°10' W 122°60'.

Type: Other ship. MMSI: 316002054.

Date/timePositionNaut miles runAvg speedWind from/ knotsBaromVisibWave heightAir tempDewpointWater temp
2017-Nov-17 22:09N 49°10' W 122°60'0 0.0
2017-Nov-17 22:00N 49°10' W 122°60'3 6.0
2017-Nov-17 21:27N 49°12' W 122°55'0 0.0
2017-Nov-17 20:48N 49°12' W 122°55'0 0.0
2017-Nov-17 20:16N 49°12' W 122°55'0 0.0
2017-Nov-17 19:57N 49°12' W 122°55'0 0.0
2017-Nov-17 19:24N 49°12' W 122°55'0 0.0
2017-Nov-17 18:58N 49°12' W 122°55'  
2017-Nov-08 23:10N 49°12' W 122°55'0 0.0
2017-Nov-08 23:00N 49°12' W 122°55'2 5.0
2017-Nov-08 22:30N 49°09' W 122°57'4 8.3
2017-Nov-08 22:00N 49°08' W 123°03'6 9.5
2017-Nov-08 21:25N 49°07' W 123°12'1 1.2
2017-Nov-08 20:52N 49°08' W 123°13'514.0
2017-Nov-08 20:30N 49°06' W 123°20'4713.0
2017-Nov-08 16:54N 49°38' W 124°13'615.2
2017-Nov-08 16:30N 49°42' W 124°20'815.2
2017-Nov-08 16:00N 49°47' W 124°29'2 0.1
2017-Nov-07 23:06N 49°48' W 124°31'0 0.0
2017-Nov-07 22:52N 49°48' W 124°31'  

Dump ship's entire track history